createdAt,value
2018-05-18T00:01:15.984Z,19.70
2018-05-18T00:03:19.902Z,21.85
2018-05-18T00:05:23.822Z,21.50
2018-05-18T00:07:27.700Z,23.35
2018-05-18T00:09:31.658Z,17.48
2018-05-18T00:11:35.512Z,28.62
2018-05-18T00:13:39.493Z,19.90
2018-05-18T00:15:43.377Z,24.50
2018-05-18T00:17:47.245Z,31.30
2018-05-18T00:19:51.221Z,29.58
2018-05-18T00:21:55.091Z,22.62
2018-05-18T00:23:59.002Z,29.12
2018-05-18T00:26:02.897Z,19.98
2018-05-18T00:28:06.793Z,31.58
2018-05-18T00:30:10.660Z,26.20
2018-05-18T00:32:14.561Z,34.00
2018-05-18T00:34:18.484Z,31.98
2018-05-18T00:36:22.345Z,37.40
2018-05-18T00:38:26.302Z,27.37
2018-05-18T00:40:30.222Z,25.95
2018-05-18T00:42:35.114Z,28.02
2018-05-18T00:44:39.041Z,25.37
2018-05-18T00:46:42.906Z,26.27
2018-05-18T00:48:46.776Z,20.23
2018-05-18T00:50:50.654Z,21.80
2018-05-18T00:52:54.513Z,22.27
2018-05-18T00:54:58.602Z,22.08
2018-05-18T00:57:02.492Z,21.27
2018-05-18T00:59:06.367Z,17.27
2018-05-18T01:01:10.205Z,24.50
2018-05-18T01:03:14.085Z,24.33
2018-05-18T01:05:17.960Z,22.85
2018-05-18T01:07:21.838Z,26.30
2018-05-18T01:09:25.773Z,22.33
2018-05-18T01:11:29.832Z,21.85
2018-05-18T01:13:33.776Z,17.50
2018-05-18T01:15:37.657Z,22.48
2018-05-18T01:17:41.571Z,15.57
2018-05-18T01:19:45.549Z,25.08
2018-05-18T01:21:49.500Z,21.05
2018-05-18T01:23:53.446Z,21.60
2018-05-18T01:25:57.309Z,17.27
2018-05-18T01:28:01.183Z,27.20
2018-05-18T01:30:04.778Z,26.00
2018-05-18T01:32:08.662Z,23.38
2018-05-18T01:34:12.528Z,18.02
2018-05-18T01:36:16.390Z,20.75
2018-05-18T01:38:20.287Z,22.83
2018-05-18T01:40:24.161Z,18.42
2018-05-18T01:42:28.043Z,23.20
2018-05-18T01:44:31.626Z,29.90
2018-05-18T01:46:35.480Z,24.80
2018-05-18T01:48:39.355Z,25.80
2018-05-18T01:50:43.205Z,21.00
2018-05-18T01:52:47.070Z,22.50
2018-05-18T01:54:50.942Z,23.98
2018-05-18T01:56:54.785Z,21.58
2018-05-18T01:58:58.730Z,16.30
2018-05-18T02:01:02.571Z,21.23
2018-05-18T02:03:06.471Z,25.65
2018-05-18T02:05:10.383Z,17.45
2018-05-18T02:07:14.346Z,21.45
2018-05-18T02:09:18.229Z,20.20
2018-05-18T02:11:22.067Z,21.23
2018-05-18T02:13:26.067Z,18.08
2018-05-18T02:15:30.205Z,21.05
2018-05-18T02:17:34.036Z,29.00
2018-05-18T02:19:37.913Z,19.90
2018-05-18T02:21:41.789Z,23.25
2018-05-18T02:23:45.699Z,20.37
2018-05-18T02:25:49.588Z,14.65
2018-05-18T02:27:53.393Z,15.43
2018-05-18T02:29:57.229Z,23.50
2018-05-18T02:32:01.067Z,19.83
2018-05-18T02:34:04.985Z,18.62
2018-05-18T02:36:08.809Z,21.37
2018-05-18T02:38:12.643Z,25.08
2018-05-18T02:40:16.572Z,23.48
2018-05-18T02:42:20.423Z,24.05
2018-05-18T02:44:23.975Z,20.15
2018-05-18T02:46:27.857Z,27.65
2018-05-18T02:48:31.738Z,19.23
2018-05-18T02:50:35.595Z,19.75
2018-05-18T02:52:39.474Z,18.62
2018-05-18T02:54:43.369Z,18.67
2018-05-18T02:56:47.181Z,21.40
2018-05-18T02:58:51.073Z,19.45
2018-05-18T03:00:54.920Z,22.02
2018-05-18T03:02:58.826Z,19.40
2018-05-18T03:05:02.697Z,27.45
2018-05-18T03:07:06.555Z,18.45
2018-05-18T03:09:10.449Z,17.60
2018-05-18T03:11:14.353Z,20.73
2018-05-18T03:13:18.215Z,26.48
2018-05-18T03:15:22.129Z,16.48
2018-05-18T03:17:26.036Z,33.15
2018-05-18T03:19:29.938Z,21.52
2018-05-18T03:21:33.826Z,28.52
2018-05-18T03:23:37.712Z,31.30
2018-05-18T03:25:41.579Z,29.90
2018-05-18T03:27:45.489Z,28.85
2018-05-18T03:29:49.613Z,28.42
2018-05-18T03:31:53.536Z,33.17
2018-05-18T03:33:57.394Z,30.30
2018-05-18T03:36:01.266Z,29.45
2018-05-18T03:38:05.129Z,18.48
2018-05-18T03:40:08.983Z,20.75
2018-05-18T03:42:12.855Z,21.15
2018-05-18T03:44:16.728Z,22.70
2018-05-18T03:46:20.775Z,33.17
2018-05-18T03:48:24.695Z,22.30
2018-05-18T03:50:28.523Z,19.60
2018-05-18T03:52:32.376Z,21.62
2018-05-18T03:54:36.296Z,12.45
2018-05-18T03:56:40.174Z,22.17
2018-05-18T03:58:44.072Z,23.27
2018-05-18T04:00:47.949Z,30.12
2018-05-18T04:03:02.879Z,22.50
2018-05-18T04:05:17.870Z,23.73
2018-05-18T04:07:32.823Z,21.98
2018-05-18T04:09:36.822Z,26.55
2018-05-18T04:11:40.650Z,18.20
2018-05-18T04:13:44.452Z,23.67
2018-05-18T04:15:48.299Z,21.48
2018-05-18T04:17:52.124Z,28.55
2018-05-18T04:19:56.046Z,23.00
2018-05-18T04:21:59.965Z,23.83
2018-05-18T04:24:03.416Z,21.12
2018-05-18T04:26:07.252Z,21.48
2018-05-18T04:28:11.064Z,21.80
2018-05-18T04:30:14.981Z,21.50
2018-05-18T04:32:18.949Z,20.55
2018-05-18T04:34:22.859Z,19.45
2018-05-18T04:36:26.815Z,26.27
2018-05-18T04:38:30.639Z,22.10
2018-05-18T04:40:34.439Z,20.45
2018-05-18T04:42:38.257Z,20.23
2018-05-18T04:44:42.061Z,23.35
2018-05-18T04:46:45.874Z,22.83
2018-05-18T04:51:51.542Z,22.15
2018-05-18T04:53:55.595Z,19.17
2018-05-18T04:55:59.489Z,29.45
2018-05-18T04:58:03.301Z,17.10
2018-05-18T05:00:07.176Z,24.92
2018-05-18T05:02:10.959Z,20.88
2018-05-18T05:04:14.454Z,23.80
2018-05-18T05:06:18.246Z,23.25
2018-05-18T05:08:22.061Z,18.80
2018-05-18T05:10:26.643Z,21.02
2018-05-18T05:12:30.864Z,27.15
2018-05-18T05:14:34.967Z,20.88
2018-05-18T05:16:38.780Z,23.40
2018-05-18T05:18:42.570Z,20.12
2018-05-18T05:20:46.387Z,19.73
2018-05-18T05:22:50.277Z,27.10
2018-05-18T05:24:54.133Z,31.02
2018-05-18T05:26:57.965Z,30.35
2018-05-18T05:29:01.786Z,27.73
2018-05-18T05:31:06.596Z,34.88
2018-05-18T05:33:10.389Z,31.73
2018-05-18T05:35:14.371Z,33.58
2018-05-18T05:37:18.213Z,38.85
2018-05-18T05:39:22.045Z,39.67
2018-05-18T05:41:25.928Z,35.53
2018-05-18T05:43:29.774Z,33.92
2018-05-18T05:45:33.665Z,31.00
2018-05-18T05:47:37.470Z,33.40
2018-05-18T05:49:41.347Z,40.35
2018-05-18T05:51:45.195Z,29.42
2018-05-18T05:53:49.014Z,35.35
2018-05-18T05:55:52.584Z,27.53
2018-05-18T05:57:56.097Z,31.20
2018-05-18T05:59:59.671Z,23.73
2018-05-18T06:02:03.244Z,24.97
2018-05-18T06:04:06.838Z,24.07
2018-05-18T06:06:10.417Z,21.93
2018-05-18T06:08:13.969Z,30.63
2018-05-18T06:10:17.525Z,18.80
2018-05-18T06:12:21.161Z,24.87
2018-05-18T06:14:24.574Z,24.17
2018-05-18T06:16:28.149Z,22.33
2018-05-18T06:18:31.678Z,26.17
2018-05-18T06:20:35.289Z,23.53
2018-05-18T06:22:38.815Z,24.20
2018-05-18T06:24:42.304Z,22.10
2018-05-18T06:26:45.906Z,21.60
2018-05-18T06:28:49.533Z,19.90
2018-05-18T06:30:53.213Z,17.77
2018-05-18T06:32:57.489Z,18.30
2018-05-18T06:35:01.117Z,24.63
2018-05-18T06:37:04.733Z,22.63
2018-05-18T06:39:08.660Z,27.90
2018-05-18T06:41:12.372Z,23.57
2018-05-18T06:43:16.168Z,24.43
2018-05-18T06:45:19.755Z,22.00
2018-05-18T06:47:23.412Z,17.30
2018-05-18T06:49:27.130Z,20.23
2018-05-18T06:51:31.266Z,22.33
2018-05-18T06:53:34.857Z,19.00
2018-05-18T06:55:38.520Z,27.50
2018-05-18T06:57:41.752Z,22.43
2018-05-18T06:59:45.347Z,22.80
2018-05-18T07:01:48.997Z,26.53
2018-05-18T07:03:52.910Z,21.93
2018-05-18T07:05:56.524Z,22.60
2018-05-18T07:08:00.098Z,20.27
2018-05-18T07:10:03.761Z,21.73
2018-05-18T07:12:07.422Z,20.77
2018-05-18T07:14:11.226Z,22.83
2018-05-18T07:16:14.954Z,21.03
2018-05-18T07:18:18.601Z,19.63
2018-05-18T07:20:22.527Z,21.90
2018-05-18T07:22:26.271Z,22.67
2018-05-18T07:24:29.988Z,23.30
2018-05-18T07:26:33.651Z,19.07
2018-05-18T07:28:37.532Z,25.73
2018-05-18T07:30:41.243Z,25.03
2018-05-18T07:32:44.961Z,23.50
2018-05-18T07:34:48.849Z,19.50
2018-05-18T07:36:52.490Z,21.93
2018-05-18T07:38:56.182Z,21.70
2018-05-18T07:40:59.965Z,19.90
2018-05-18T07:43:03.520Z,22.37
2018-05-18T07:45:07.056Z,22.27
2018-05-18T07:47:10.818Z,24.80
2018-05-18T07:49:14.330Z,20.57
2018-05-18T07:51:17.892Z,22.40
2018-05-18T07:53:21.495Z,28.43
2018-05-18T07:55:25.145Z,20.73
2018-05-18T07:57:28.686Z,21.57
2018-05-18T07:59:32.318Z,20.97
2018-05-18T08:01:35.826Z,21.70
2018-05-18T08:03:39.721Z,21.33
2018-05-18T08:05:43.405Z,25.83
2018-05-18T08:07:47.003Z,23.63
2018-05-18T08:09:50.720Z,23.90
2018-05-18T08:11:54.318Z,29.83
2018-05-18T08:13:57.921Z,23.53
2018-05-18T08:16:01.876Z,24.63
2018-05-18T08:18:05.506Z,23.70
2018-05-18T08:20:09.065Z,19.93
2018-05-18T08:22:12.695Z,25.87
2018-05-18T08:24:16.317Z,22.50
2018-05-18T08:26:20.037Z,27.93
2018-05-18T08:28:22.913Z,25.13
2018-05-18T08:30:26.140Z,23.30
2018-05-18T08:32:29.743Z,19.03
2018-05-18T08:34:33.357Z,20.17
2018-05-18T08:36:36.976Z,20.50
2018-05-18T08:38:40.530Z,22.40
2018-05-18T08:40:44.409Z,24.50
2018-05-18T08:42:48.468Z,24.43
2018-05-18T08:44:52.095Z,23.33
2018-05-18T08:46:55.361Z,20.47
2018-05-18T08:48:58.989Z,22.80
2018-05-18T08:51:02.592Z,23.13
2018-05-18T08:53:06.072Z,20.60
2018-05-18T08:55:09.595Z,22.50
2018-05-18T08:57:13.183Z,20.67
2018-05-18T08:59:16.747Z,22.30
2018-05-18T09:01:20.602Z,24.00
2018-05-18T09:03:24.248Z,18.80
2018-05-18T09:05:27.767Z,23.90
2018-05-18T09:07:31.367Z,20.13
2018-05-18T09:09:35.039Z,21.90
2018-05-18T09:11:38.649Z,25.30
2018-05-18T09:13:42.183Z,20.93
2018-05-18T09:15:45.888Z,20.20
2018-05-18T09:17:49.563Z,18.90
2018-05-18T09:19:53.144Z,19.93
2018-05-18T09:21:56.843Z,22.43
2018-05-18T09:24:00.489Z,19.03
2018-05-18T09:26:04.160Z,19.63
2018-05-18T09:28:19.752Z,19.63
2018-05-18T09:30:44.865Z,23.05
2018-05-18T09:32:50.226Z,22.77
2018-05-18T09:34:56.474Z,25.03
2018-05-18T09:37:00.371Z,22.83
2018-05-18T09:39:03.345Z,22.37
2018-05-18T09:41:06.929Z,21.77
2018-05-18T09:43:10.493Z,24.30
2018-05-18T09:45:14.112Z,20.50
2018-05-18T09:47:18.309Z,22.37
2018-05-18T09:49:22.339Z,25.03
2018-05-18T09:51:26.030Z,24.40
2018-05-18T09:53:29.669Z,21.37
2018-05-18T09:55:33.441Z,19.77
2018-05-18T09:57:37.085Z,18.03
2018-05-18T09:59:40.660Z,22.27
2018-05-18T10:01:44.311Z,23.17
2018-05-18T10:03:47.897Z,23.70
2018-05-18T10:05:52.253Z,24.90
2018-05-18T10:07:55.830Z,22.23
2018-05-18T10:09:59.545Z,19.07
2018-05-18T10:12:03.331Z,27.03
2018-05-18T10:14:07.361Z,21.60
2018-05-18T10:16:13.897Z,24.50
2018-05-18T10:18:18.136Z,21.37
2018-05-18T10:20:22.021Z,22.77
2018-05-18T10:22:26.633Z,20.43
2018-05-18T10:24:31.144Z,23.10
2018-05-18T10:26:34.936Z,19.63
2018-05-18T10:28:39.374Z,20.90
2018-05-18T10:30:42.976Z,21.93
2018-05-18T10:32:47.481Z,24.57
2018-05-18T10:34:51.259Z,24.63
2018-05-18T10:36:54.991Z,28.37
2018-05-18T10:38:58.539Z,21.93
2018-05-18T10:41:02.311Z,25.63
2018-05-18T10:43:06.222Z,23.20
2018-05-18T10:45:10.389Z,24.20
2018-05-18T10:47:19.919Z,21.33
2018-05-18T10:49:23.905Z,20.90
2018-05-18T10:51:28.089Z,24.50
2018-05-18T10:53:32.141Z,25.10
2018-05-18T10:55:35.858Z,23.47
2018-05-18T10:57:39.554Z,21.87
2018-05-18T10:59:43.209Z,22.23
2018-05-18T11:01:46.838Z,23.77
2018-05-18T11:03:50.687Z,22.97
2018-05-18T11:05:54.946Z,21.37
2018-05-18T11:07:59.434Z,23.30
2018-05-18T11:10:03.629Z,20.90
2018-05-18T11:12:07.304Z,19.57
2018-05-18T11:14:12.093Z,20.10
2018-05-18T11:16:15.817Z,24.73
2018-05-18T11:18:19.642Z,25.57
2018-05-18T11:20:23.284Z,20.50
2018-05-18T11:22:27.158Z,21.57
2018-05-18T11:24:32.148Z,22.50
2018-05-18T11:26:35.940Z,22.70
2018-05-18T11:28:40.379Z,20.57
2018-05-18T11:30:44.160Z,19.87
2018-05-18T11:32:49.576Z,22.23
2018-05-18T11:34:53.306Z,22.03
2018-05-18T11:36:57.059Z,25.27
2018-05-18T11:39:01.584Z,22.77
2018-05-18T11:41:04.909Z,21.93
2018-05-18T11:43:08.470Z,24.33
2018-05-18T11:45:12.075Z,21.50
2018-05-18T11:47:15.709Z,20.03
2018-05-18T11:49:19.430Z,16.57
2018-05-18T11:51:23.933Z,18.97
2018-05-18T11:53:28.274Z,21.03
2018-05-18T11:55:32.251Z,18.83
2018-05-18T11:57:36.129Z,18.83
2018-05-18T11:59:39.816Z,18.80
2018-05-18T12:01:43.652Z,20.73
2018-05-18T12:03:47.581Z,19.77
2018-05-18T12:05:52.889Z,21.67
2018-05-18T12:07:56.700Z,19.13
2018-05-18T12:10:00.401Z,20.83
2018-05-18T12:12:04.273Z,23.30
2018-05-18T12:14:08.248Z,21.73
2018-05-18T12:16:12.180Z,23.30
2018-05-18T12:18:15.713Z,21.97
2018-05-18T12:20:19.300Z,22.33
2018-05-18T12:22:23.082Z,25.67
2018-05-18T12:24:26.597Z,26.70
2018-05-18T12:26:30.149Z,22.47
2018-05-18T12:28:33.770Z,22.33
2018-05-18T12:30:37.345Z,20.90
2018-05-18T12:32:40.851Z,21.97
2018-05-18T12:34:44.398Z,24.80
2018-05-18T12:36:48.041Z,21.37
2018-05-18T12:38:51.569Z,20.03
2018-05-18T12:40:55.150Z,22.30
2018-05-18T12:42:58.682Z,21.73
2018-05-18T12:45:02.378Z,25.47
2018-05-18T12:47:05.961Z,20.93
2018-05-18T12:49:09.504Z,21.70
2018-05-18T12:51:13.036Z,24.73
2018-05-18T12:53:16.597Z,23.07
2018-05-18T12:55:20.129Z,22.77
2018-05-18T12:57:23.698Z,22.47
2018-05-18T12:59:27.250Z,20.50
2018-05-18T13:01:30.756Z,22.67
2018-05-18T13:03:34.316Z,24.47
2018-05-18T13:05:38.081Z,21.23
2018-05-18T13:07:41.671Z,22.53
2018-05-18T13:09:45.921Z,23.07
2018-05-18T13:11:53.909Z,26.43
2018-05-18T13:13:57.560Z,21.87
2018-05-18T13:16:00.825Z,22.73
2018-05-18T13:18:04.929Z,25.40
2018-05-18T13:20:08.456Z,22.13
2018-05-18T13:22:13.064Z,20.00
2018-05-18T13:24:16.609Z,26.93
2018-05-18T13:26:20.106Z,22.13
2018-05-18T13:28:23.707Z,20.53
2018-05-18T13:30:27.225Z,24.73
2018-05-18T13:32:30.918Z,26.83
2018-05-18T13:34:34.548Z,25.10
2018-05-18T13:36:38.134Z,28.87
2018-05-18T13:38:41.786Z,27.80
2018-05-18T13:40:46.055Z,25.57
2018-05-18T13:42:49.813Z,24.07
2018-05-18T13:44:53.415Z,24.23
2018-05-18T13:46:57.106Z,22.20
2018-05-18T13:49:00.828Z,26.47
2018-05-18T13:51:04.369Z,27.33
2018-05-18T13:53:07.900Z,27.13
2018-05-18T13:55:11.591Z,25.83
2018-05-18T13:57:15.239Z,23.40
2018-05-18T13:59:18.937Z,24.83
2018-05-18T14:01:23.015Z,24.07
2018-05-18T14:03:26.775Z,27.43
2018-05-18T14:05:30.354Z,28.97
2018-05-18T14:07:33.894Z,26.57
2018-05-18T14:09:38.368Z,26.63
2018-05-18T14:11:41.930Z,30.63
2018-05-18T14:13:45.882Z,25.93
2018-05-18T14:15:49.641Z,26.87
2018-05-18T14:17:53.271Z,26.57
2018-05-18T14:19:56.459Z,28.03
2018-05-18T14:22:00.027Z,29.30
2018-05-18T14:24:03.588Z,26.67
2018-05-18T14:26:07.195Z,22.67
2018-05-18T14:28:10.758Z,22.70
2018-05-18T14:30:14.341Z,24.73
2018-05-18T14:32:17.910Z,26.13
2018-05-18T14:34:21.439Z,28.23
2018-05-18T14:36:24.930Z,26.33
2018-05-18T14:38:28.515Z,25.27
2018-05-18T14:40:32.025Z,23.03
2018-05-18T14:42:35.681Z,23.27
2018-05-18T14:44:39.188Z,24.57
2018-05-18T14:46:42.766Z,27.13
2018-05-18T14:48:46.370Z,29.23
2018-05-18T14:50:49.586Z,30.53
2018-05-18T14:52:53.190Z,27.60
2018-05-18T14:54:56.780Z,24.23
2018-05-18T14:57:00.617Z,25.77
2018-05-18T14:59:04.264Z,24.30
2018-05-18T15:01:07.875Z,23.43
2018-05-18T15:03:11.613Z,25.63
2018-05-18T15:05:15.332Z,24.40
2018-05-18T15:07:18.958Z,25.00
2018-05-18T15:09:22.642Z,25.07
2018-05-18T15:11:26.257Z,26.93
2018-05-18T15:13:29.834Z,24.40
2018-05-18T15:15:33.342Z,24.97
2018-05-18T15:17:36.906Z,24.53
2018-05-18T15:19:40.484Z,25.83
2018-05-18T15:21:44.011Z,25.13
2018-05-18T15:23:47.572Z,29.57
2018-05-18T15:25:51.886Z,24.80
2018-05-18T15:27:55.772Z,25.87
2018-05-18T15:29:59.759Z,22.23
2018-05-18T15:32:03.581Z,24.73
2018-05-18T15:34:07.203Z,26.20
2018-05-18T15:36:10.594Z,26.47
2018-05-18T15:38:14.804Z,25.20
2018-05-18T15:40:18.863Z,21.47
2018-05-18T15:42:22.911Z,20.37
2018-05-18T15:44:26.671Z,26.10
2018-05-18T15:46:30.234Z,26.77
2018-05-18T15:48:33.927Z,23.97
2018-05-18T15:50:37.543Z,22.87
2018-05-18T15:52:41.050Z,23.87
2018-05-18T15:54:44.587Z,23.43
2018-05-18T15:56:48.124Z,23.90
2018-05-18T15:58:51.706Z,25.63
2018-05-18T16:00:55.262Z,21.73
2018-05-18T16:02:58.863Z,22.57
2018-05-18T16:05:02.418Z,23.80
2018-05-18T16:07:05.983Z,22.33
2018-05-18T16:09:09.694Z,24.40
2018-05-18T16:11:13.258Z,31.77
2018-05-18T16:13:17.045Z,26.30
2018-05-18T16:15:20.813Z,26.53
2018-05-18T16:17:24.785Z,29.80
2018-05-18T16:19:28.468Z,29.10
2018-05-18T16:21:32.070Z,31.13
2018-05-18T16:23:35.635Z,27.93
2018-05-18T16:25:39.756Z,25.13
2018-05-18T16:27:43.987Z,24.67
2018-05-18T16:29:47.685Z,28.13
2018-05-18T16:31:51.305Z,24.17
2018-05-18T16:33:54.910Z,25.50
2018-05-18T16:35:58.479Z,25.03
2018-05-18T16:38:02.043Z,22.47
2018-05-18T16:40:05.663Z,21.93
2018-05-18T16:42:09.382Z,24.73
2018-05-18T16:44:12.986Z,22.87
2018-05-18T16:46:16.294Z,21.93
2018-05-18T16:48:19.836Z,21.67
2018-05-18T16:50:23.423Z,23.27
2018-05-18T16:52:27.048Z,24.60
2018-05-18T16:54:30.449Z,22.73
2018-05-18T16:56:34.071Z,22.60
2018-05-18T16:58:37.645Z,25.97
2018-05-18T17:00:41.190Z,25.10
2018-05-18T17:02:44.760Z,29.07
2018-05-18T17:04:48.456Z,28.60
2018-05-18T17:06:52.018Z,32.50
2018-05-18T17:08:55.812Z,35.30
2018-05-18T17:10:59.338Z,31.70
2018-05-18T17:13:03.009Z,34.17
2018-05-18T17:15:06.826Z,33.00
2018-05-18T17:17:11.037Z,38.53
2018-05-18T17:19:14.313Z,34.67
2018-05-18T17:21:17.889Z,35.40
2018-05-18T17:23:21.467Z,33.10
2018-05-18T17:25:25.084Z,39.13
2018-05-18T17:27:28.622Z,37.27
2018-05-18T17:29:32.205Z,35.17
2018-05-18T17:31:35.715Z,39.33
2018-05-18T17:33:39.290Z,39.53
2018-05-18T17:35:42.884Z,34.57
2018-05-18T17:37:46.431Z,35.67
2018-05-18T17:39:50.016Z,35.43
2018-05-18T17:41:53.768Z,39.30
2018-05-18T17:43:57.344Z,41.07
2018-05-18T17:46:00.891Z,37.20
2018-05-18T17:48:04.470Z,40.73
2018-05-18T17:50:07.770Z,37.80
2018-05-18T17:52:11.364Z,35.77
2018-05-18T17:54:14.948Z,39.00
2018-05-18T17:56:18.577Z,37.33
2018-05-18T17:58:22.170Z,41.17
2018-05-18T18:00:25.769Z,41.07
2018-05-18T18:02:29.483Z,41.23
2018-05-18T18:04:33.099Z,39.50
2018-05-18T18:06:36.852Z,41.70
2018-05-18T18:08:40.483Z,47.60
2018-05-18T18:10:44.361Z,45.23
2018-05-18T18:12:47.949Z,47.83
2018-05-18T18:14:51.680Z,43.90
2018-05-18T18:16:55.826Z,47.00
2018-05-18T18:18:59.797Z,47.10
2018-05-18T18:21:03.715Z,46.13
2018-05-18T18:23:07.249Z,52.03
2018-05-18T18:25:10.921Z,48.80
2018-05-18T18:27:14.582Z,48.33
2018-05-18T18:29:18.192Z,46.07
2018-05-18T18:31:21.935Z,48.50
2018-05-18T18:33:25.765Z,48.23
2018-05-18T18:35:29.382Z,45.77
2018-05-18T18:37:32.955Z,50.93
2018-05-18T18:39:36.459Z,52.70
2018-05-18T18:41:40.034Z,49.80
2018-05-18T18:43:43.218Z,49.87
2018-05-18T18:45:46.972Z,50.57
2018-05-18T18:47:50.563Z,48.40
2018-05-18T18:49:54.137Z,51.83
2018-05-18T18:51:57.726Z,52.80
2018-05-18T18:54:04.389Z,54.37
2018-05-18T18:56:07.926Z,52.00
2018-05-18T18:58:11.495Z,48.43
2018-05-18T19:00:15.035Z,50.30
2018-05-18T19:02:18.592Z,50.33
2018-05-18T19:04:22.181Z,50.27
2018-05-18T19:06:25.813Z,51.23
2018-05-18T19:08:29.497Z,49.23
2018-05-18T19:10:33.666Z,48.27
2018-05-18T19:12:37.369Z,56.13
2018-05-18T19:14:40.953Z,51.27
2018-05-18T19:16:44.499Z,50.77
2018-05-18T19:18:48.081Z,49.77
2018-05-18T19:20:51.696Z,46.90
2018-05-18T19:22:55.311Z,52.10
2018-05-18T19:24:58.841Z,53.93
2018-05-18T19:27:02.471Z,50.03
2018-05-18T19:29:06.079Z,49.57
2018-05-18T19:31:09.665Z,46.73
2018-05-18T19:33:13.213Z,48.90
2018-05-18T19:35:16.774Z,47.37
2018-05-18T19:37:20.315Z,49.27
2018-05-18T19:39:23.866Z,43.60
2018-05-18T19:41:27.810Z,45.10
2018-05-18T19:43:31.472Z,46.50
2018-05-18T19:45:35.098Z,47.00
2018-05-18T19:47:38.761Z,44.13
2018-05-18T19:49:42.371Z,47.03
2018-05-18T19:51:45.967Z,43.50
2018-05-18T19:53:49.567Z,45.57
2018-05-18T19:55:53.111Z,50.00
2018-05-18T19:57:56.660Z,46.40
2018-05-18T20:00:00.253Z,46.13
2018-05-18T20:02:03.822Z,46.60
2018-05-18T20:04:07.380Z,46.53
2018-05-18T20:06:11.120Z,41.73
2018-05-18T20:08:15.008Z,40.60
2018-05-18T20:10:18.976Z,37.85
2018-05-18T20:12:22.564Z,45.07
2018-05-18T20:14:26.783Z,44.08
2018-05-18T20:16:30.694Z,45.28
2018-05-18T20:18:34.712Z,47.13
2018-05-18T20:20:38.601Z,48.22
2018-05-18T20:22:42.516Z,48.45
2018-05-18T20:24:46.330Z,50.60
2018-05-18T20:26:49.902Z,41.97
2018-05-18T20:28:53.784Z,43.90
2018-05-18T20:30:57.772Z,46.00
2018-05-18T20:33:01.746Z,42.20
2018-05-18T20:35:05.540Z,45.92
2018-05-18T20:37:09.431Z,46.65
2018-05-18T20:39:13.278Z,47.72
2018-05-18T20:41:17.202Z,44.47
2018-05-18T20:43:21.094Z,43.87
2018-05-18T20:45:25.050Z,44.83
2018-05-18T20:47:29.041Z,42.70
2018-05-18T20:49:32.899Z,42.30
2018-05-18T20:51:36.789Z,42.28
2018-05-18T20:53:40.697Z,46.17
2018-05-18T20:55:44.690Z,45.00
2018-05-18T20:57:48.584Z,50.58
2018-05-18T20:59:52.451Z,40.42
2018-05-18T21:01:56.445Z,41.75
2018-05-18T21:04:00.318Z,46.88
2018-05-18T21:06:04.157Z,44.60
2018-05-18T21:08:07.976Z,48.28
2018-05-18T21:10:11.989Z,47.42
2018-05-18T21:12:15.840Z,45.10
2018-05-18T21:14:19.741Z,42.38
2018-05-18T21:16:23.555Z,46.97
2018-05-18T21:18:27.495Z,43.40
2018-05-18T21:20:31.528Z,48.75
2018-05-18T21:22:35.376Z,50.17
2018-05-18T21:24:39.260Z,51.63
2018-05-18T21:26:43.335Z,59.15
2018-05-18T21:28:47.575Z,65.22
2018-05-18T21:30:51.446Z,56.55
2018-05-18T21:32:55.483Z,69.05
2018-05-18T21:34:59.422Z,75.43
2018-05-18T21:37:03.359Z,67.82
2018-05-18T21:39:06.618Z,61.03
2018-05-18T21:41:10.440Z,61.75
2018-05-18T21:43:14.327Z,62.83
2018-05-18T21:45:18.438Z,57.78
2018-05-18T21:47:22.313Z,54.92
2018-05-18T21:49:26.528Z,53.97
2018-05-18T21:51:30.341Z,48.72
2018-05-18T21:53:34.170Z,52.47
2018-05-18T21:55:37.974Z,48.53
2018-05-18T21:57:41.832Z,47.03
2018-05-18T21:59:45.728Z,48.67
2018-05-18T22:01:49.574Z,46.95
2018-05-18T22:03:53.446Z,51.80
2018-05-18T22:05:57.283Z,49.13
2018-05-18T22:08:01.432Z,45.60
2018-05-18T22:10:05.285Z,49.85
2018-05-18T22:12:09.135Z,46.10
2018-05-18T22:14:13.072Z,43.58
2018-05-18T22:16:17.018Z,44.97
2018-05-18T22:18:20.844Z,45.42
2018-05-18T22:20:24.719Z,44.75
2018-05-18T22:22:28.518Z,46.58
2018-05-18T22:24:32.427Z,49.08
2018-05-18T22:26:36.214Z,45.00
2018-05-18T22:28:40.059Z,41.95
2018-05-18T22:30:43.915Z,47.38
2018-05-18T22:32:47.754Z,40.03
2018-05-18T22:34:51.627Z,45.55
2018-05-18T22:36:55.447Z,43.60
2018-05-18T22:38:59.295Z,43.38
2018-05-18T22:41:03.133Z,37.55
2018-05-18T22:43:06.936Z,38.88
2018-05-18T22:45:10.784Z,42.10
2018-05-18T22:47:14.631Z,44.08
2018-05-18T22:49:18.440Z,44.13
2018-05-18T22:51:22.245Z,43.00
2018-05-18T22:53:26.052Z,41.45
2018-05-18T22:55:29.886Z,43.22
2018-05-18T22:57:33.714Z,47.38
2018-05-18T22:59:37.552Z,46.88
2018-05-18T23:01:41.500Z,42.17
2018-05-18T23:03:45.518Z,48.17
2018-05-18T23:05:49.458Z,38.90
2018-05-18T23:07:53.337Z,47.05
2018-05-18T23:09:57.309Z,42.83
2018-05-18T23:12:01.214Z,43.63
2018-05-18T23:14:05.157Z,46.90
2018-05-18T23:16:09.092Z,42.17
2018-05-18T23:18:12.908Z,46.47
2018-05-18T23:20:16.918Z,43.92
2018-05-18T23:22:20.933Z,43.47
2018-05-18T23:24:25.041Z,43.55
2018-05-18T23:26:28.950Z,44.72
2018-05-18T23:28:32.769Z,46.22
2018-05-18T23:30:36.607Z,42.45
2018-05-18T23:32:40.423Z,42.03
2018-05-18T23:34:44.257Z,43.63
2018-05-18T23:36:48.117Z,44.15
2018-05-18T23:38:51.942Z,43.25
2018-05-18T23:40:55.787Z,48.10
2018-05-18T23:42:59.662Z,49.50
2018-05-18T23:45:03.533Z,47.10
2018-05-18T23:47:07.363Z,39.80
2018-05-18T23:49:11.158Z,47.72
2018-05-18T23:51:15.023Z,45.22
2018-05-18T23:53:18.868Z,45.25
2018-05-18T23:55:22.736Z,44.20
2018-05-18T23:57:26.576Z,47.03
2018-05-18T23:59:30.394Z,42.50
